EDT,Max TemperatureF,Mean TemperatureF,Min TemperatureF,Max Dew PointF,MeanDew PointF,Min DewpointF,Max Humidity, Mean Humidity, Min Humidity, Max Sea Level PressureIn, Mean Sea Level PressureIn, Min Sea Level PressureIn, Max VisibilityMiles, Mean VisibilityMiles, Min VisibilityMiles, Max Wind SpeedMPH, Mean Wind SpeedMPH, Max Gust SpeedMPH,PrecipitationIn, CloudCover, Events, WindDirDegrees
2012-10-1,73,68,64,72,69,64,100,96,93,29.77,29.70,29.64,10,4,0,20,6,29,1.78,8,Fog-Rain-Thunderstorm,155
2012-10-2,71,68,62,70,64,59,100,86,68,29.99,29.80,29.65,10,9,2,13,6,18,0.05,7,Rain,204
2012-10-3,73,65,57,61,59,54,100,84,51,30.20,30.10,30.00,10,9,5,7,3,,0.00,2,,254
2012-10-4,81,68,55,60,56,52,100,77,38,30.28,30.23,30.18,10,8,2,9,2,,0.00,0,,330
2012-10-5,82,68,54,59,56,53,97,72,39,30.20,30.12,30.02,10,8,4,8,1,,0.00,0,,251
2012-10-6,82,69,57,62,59,55,97,78,50,30.04,29.99,29.91,10,8,3,13,3,17,0.01,2,,297
2012-10-7,66,60,52,54,49,43,90,76,57,30.09,30.03,29.97,10,10,10,15,7,24,0.00,1,,304
2012-10-8,62,56,51,52,49,44,88,78,64,30.15,30.11,30.06,10,10,10,8,3,,0.00,7,,11
2012-10-9,68,58,51,52,49,48,93,79,52,30.17,30.12,30.05,10,9,7,8,2,,0.00,6,,88
2012-10-10,73,60,48,54,51,46,100,80,53,30.17,30.13,30.09,10,9,1,13,3,22,0.00,4,,305
2012-10-11,73,60,46,51,47,39,97,68,31,30.29,30.23,30.17,10,9,4,7,2,,0.00,1,,304
2012-10-12,75,66,57,60,57,52,87,72,55,30.29,30.23,30.19,10,10,10,12,3,20,0.00,5,,313
2012-10-13,72,66,59,59,54,51,96,70,48,30.35,30.28,30.24,10,10,10,10,5,16,0.00,1,,91
2012-10-14,75,66,57,64,58,51,90,79,64,30.27,30.16,30.01,10,10,9,7,3,,0.00,6,,127
2012-10-15,75,64,55,64,58,42,100,77,35,29.97,29.93,29.86,10,8,3,16,7,28,0.11,4,Rain,265
2012-10-16,73,58,44,50,45,37,93,66,29,30.00,29.94,29.88,10,10,10,10,4,,0.00,0,,323
2012-10-17,73,62,50,51,47,42,96,64,34,29.97,29.90,29.83,10,10,8,10,2,18,0.00,0,,149
2012-10-18,73,64,55,62,57,47,100,81,62,29.88,29.81,29.77,10,9,4,9,5,,0.08,4,Rain,195
2012-10-19,72,58,44,49,38,30,93,50,22,29.84,29.81,29.75,10,10,10,18,7,29,0.00,0,,249
2012-10-20,69,57,46,46,42,39,80,60,40,29.99,29.91,29.83,10,10,10,16,5,24,0.00,0,,288
2012-10-21,75,58,44,50,45,42,93,69,32,30.17,30.11,30.00,10,10,10,6,1,,0.00,0,,324
2012-10-22,78,62,46,54,49,45,97,71,34,30.24,30.17,30.12,10,10,8,4,0,,0.00,0,,230
2012-10-23,78,62,48,54,50,47,97,73,37,30.22,30.15,30.10,10,9,5,5,0,,0.00,0,,170
2012-10-24,79,64,48,58,52,47,96,74,40,30.21,30.13,30.07,10,9,6,4,0,,0.01,0,,104
2012-10-25,80,65,52,58,55,51,97,71,45,30.13,30.07,30.02,10,10,8,7,2,,0.00,1,,75
2012-10-26,80,68,57,61,57,54,97,74,42,30.06,29.99,29.91,10,10,7,8,2,,0.00,2,,69
2012-10-27,66,58,51,57,53,46,90,77,63,29.90,29.84,29.78,10,10,7,14,7,20,0.00,1,,318
2012-10-28,53,49,46,47,43,37,90,79,71,29.89,29.83,29.78,10,10,9,22,11,32,0.00,7,,310
2012-10-29,55,49,44,37,31,21,74,54,37,29.90,29.86,29.78,10,10,10,25,16,39,0.00,3,,319
2012-10-30,55,48,41,28,23,17,58,40,24,29.84,29.75,29.71,10,10,10,22,14,32,0.00,0,,289
2012-10-31,62,50,39,28,24,16,63,39,18,29.91,29.87,29.83,10,10,10,18,11,25,0.00,0,,281